Time,TemperatureF,DewpointF,PressureIn,WindDirection,WindDirectionDegrees,WindSpeedMPH,WindSpeedGustMPH,Humidity,HourlyPrecipIn,Conditions,Clouds,dailyrainin,SoftwareType,DateUTC
2013-12-28 00:00:00,33.4,31.9,30.33,ESE,109,0.0,0.0,94,0.00,,,0.00,Wunderground v.1.15,2013-12-28 06:00:00,
2013-12-28 00:05:00,33.5,32.0,30.33,ESE,111,0.0,0.0,94,0.00,,---,0.00,VWS V14.01,2013-12-28 06:05:00,
2013-12-28 00:10:00,33.5,32.0,30.33,ESE,111,0.0,0.0,94,0.00,,,0.00,Wunderground v.1.15,2013-12-28 06:10:00,
2013-12-28 00:15:00,33.5,32.0,30.33,ESE,109,0.0,0.0,94,0.00,,,0.00,Wunderground v.1.15,2013-12-28 06:15:00,
2013-12-28 00:20:00,33.4,31.9,30.33,ESE,111,0.0,0.0,94,0.00,,,0.00,Wunderground v.1.15,2013-12-28 06:20:00,
2013-12-28 00:25:00,33.4,31.9,30.32,ESE,109,0.0,0.0,94,0.00,,,0.00,Wunderground v.1.15,2013-12-28 06:25:00,
2013-12-28 00:26:00,33.4,31.9,30.32,ESE,111,0.0,0.0,94,0.00,,---,0.00,VWS V14.01,2013-12-28 06:26:00,
2013-12-28 00:30:00,33.2,31.7,30.32,ESE,111,0.0,0.0,94,0.00,,,0.00,Wunderground v.1.15,2013-12-28 06:30:00,
2013-12-28 00:31:00,33.2,31.7,30.32,ESE,111,0.0,0.0,94,0.00,,---,0.00,VWS V14.01,2013-12-28 06:31:00,
2013-12-28 00:35:00,33.1,31.6,30.32,ESE,111,0.0,0.0,94,0.00,,,0.00,Wunderground v.1.15,2013-12-28 06:35:00,
2013-12-28 00:36:00,33.1,31.6,30.32,ESE,111,0.0,0.0,94,0.00,,---,0.00,VWS V14.01,2013-12-28 06:36:00,
2013-12-28 00:40:00,32.9,31.4,30.32,ESE,111,0.0,0.0,94,0.00,,,0.00,Wunderground v.1.15,2013-12-28 06:40:00,
2013-12-28 00:41:00,32.9,31.4,30.32,ESE,111,0.0,0.0,94,0.00,,---,0.00,VWS V14.01,2013-12-28 06:41:00,
2013-12-28 00:45:00,32.9,31.4,30.31,ESE,111,0.0,0.0,94,0.00,,,0.00,Wunderground v.1.15,2013-12-28 06:45:00,
2013-12-28 00:46:00,32.9,31.4,30.31,ESE,111,0.0,0.0,94,0.00,,---,0.00,VWS V14.01,2013-12-28 06:46:00,
2013-12-28 00:50:00,32.9,31.4,30.31,ESE,111,0.0,0.0,94,0.00,,,0.00,Wunderground v.1.15,2013-12-28 06:50:00,
2013-12-28 00:51:00,32.9,31.4,30.31,ESE,111,0.0,0.0,94,0.00,,---,0.00,VWS V14.01,2013-12-28 06:51:00,
2013-12-28 00:55:00,32.9,31.4,30.32,ESE,109,0.0,0.0,94,0.00,,,0.00,Wunderground v.1.15,2013-12-28 06:55:00,
2013-12-28 00:57:00,33.1,31.6,30.31,ESE,111,0.0,0.0,94,0.00,,---,0.00,VWS V14.01,2013-12-28 06:57:00,
2013-12-28 01:00:00,33.2,31.9,30.31,ESE,111,0.0,0.0,95,0.00,,,0.00,Wunderground v.1.15,2013-12-28 07:00:00,
2013-12-28 01:02:00,33.2,31.9,30.31,ESE,111,0.0,0.0,95,0.00,,---,0.00,VWS V14.01,2013-12-28 07:02:00,
2013-12-28 01:05:00,33.4,32.1,30.31,ESE,111,0.0,0.0,95,0.00,,,0.00,Wunderground v.1.15,2013-12-28 07:05:00,
2013-12-28 01:07:00,33.5,32.2,30.31,ESE,111,0.0,0.0,95,0.00,,---,0.00,VWS V14.01,2013-12-28 07:07:00,
2013-12-28 01:10:00,33.5,32.2,30.31,ESE,111,0.0,0.0,95,0.00,,,0.00,Wunderground v.1.15,2013-12-28 07:10:00,
2013-12-28 01:12:00,33.7,32.4,30.31,ESE,111,0.0,0.0,95,0.00,,---,0.00,VWS V14.01,2013-12-28 07:12:00,
2013-12-28 01:15:00,33.8,32.5,30.31,ESE,111,0.0,0.0,95,0.00,,,0.00,Wunderground v.1.15,2013-12-28 07:15:00,
2013-12-28 01:17:00,33.8,32.5,30.31,ESE,111,0.0,0.0,95,0.00,,---,0.00,VWS V14.01,2013-12-28 07:17:00,
2013-12-28 01:20:00,33.8,32.5,30.31,ESE,111,0.0,0.0,95,0.00,,,0.00,Wunderground v.1.15,2013-12-28 07:20:00,
2013-12-28 01:22:00,33.8,32.5,30.31,ESE,111,0.0,0.0,95,0.00,,---,0.00,VWS V14.01,2013-12-28 07:22:00,
2013-12-28 01:25:00,33.7,32.2,30.30,ESE,111,0.0,0.0,94,0.00,,,0.00,Wunderground v.1.15,2013-12-28 07:25:00,
2013-12-28 01:27:00,33.7,32.2,30.31,ESE,109,0.0,0.0,94,0.00,,---,0.00,VWS V14.01,2013-12-28 07:27:00,
2013-12-28 01:30:00,33.7,32.2,30.30,ESE,111,0.0,0.0,94,0.00,,,0.00,Wunderground v.1.15,2013-12-28 07:30:00,
2013-12-28 01:32:00,33.7,32.2,30.30,ESE,111,0.0,0.0,94,0.00,,---,0.00,VWS V14.01,2013-12-28 07:32:00,
2013-12-28 01:35:00,33.7,32.4,30.30,ESE,111,0.0,0.0,95,0.00,,,0.00,Wunderground v.1.15,2013-12-28 07:35:00,
2013-12-28 01:37:00,33.7,32.4,30.30,ESE,111,0.0,0.0,95,0.00,,---,0.00,VWS V14.01,2013-12-28 07:37:00,
2013-12-28 01:40:00,33.7,32.4,30.30,ESE,111,0.0,0.0,95,0.00,,,0.00,Wunderground v.1.15,2013-12-28 07:40:00,
2013-12-28 01:42:00,33.7,32.4,30.30,ESE,111,0.0,0.0,95,0.00,,---,0.00,VWS V14.01,2013-12-28 07:42:00,
2013-12-28 01:45:00,33.7,32.4,30.30,ESE,111,0.0,0.0,95,0.00,,,0.00,Wunderground v.1.15,2013-12-28 07:45:00,
2013-12-28 01:48:00,33.7,32.4,30.30,ESE,111,0.0,0.0,95,0.00,,---,0.00,VWS V14.01,2013-12-28 07:48:00,
2013-12-28 01:50:00,33.7,32.4,30.30,ESE,111,0.0,0.0,95,0.00,,,0.00,Wunderground v.1.15,2013-12-28 07:50:00,
2013-12-28 01:53:00,33.5,32.2,30.30,ESE,111,0.0,0.0,95,0.00,,---,0.00,VWS V14.01,2013-12-28 07:53:00,
2013-12-28 01:55:00,33.5,32.2,30.30,ESE,111,0.0,0.0,95,0.00,,,0.00,Wunderground v.1.15,2013-12-28 07:55:00,
2013-12-28 01:58:00,33.7,32.4,30.30,ESE,111,0.0,0.0,95,0.00,,---,0.00,VWS V14.01,2013-12-28 07:58:00,
2013-12-28 02:03:00,33.7,32.4,30.30,ESE,111,0.0,0.0,95,0.00,,---,0.00,VWS V14.01,2013-12-28 08:03:00,
2013-12-28 02:05:00,33.8,32.5,30.30,ESE,111,0.0,0.0,95,0.00,,,0.00,Wunderground v.1.15,2013-12-28 08:05:00,
2013-12-28 02:08:00,33.8,32.5,30.30,ESE,111,0.0,0.0,95,0.00,,---,0.00,VWS V14.01,2013-12-28 08:08:00,
2013-12-28 02:10:00,33.8,32.5,30.30,ESE,111,0.0,0.0,95,0.00,,,0.00,Wunderground v.1.15,2013-12-28 08:10:00,
2013-12-28 02:13:00,33.8,32.5,30.30,ESE,111,0.0,0.0,95,0.00,,---,0.00,VWS V14.01,2013-12-28 08:13:00,
2013-12-28 02:18:00,33.8,32.5,30.30,ESE,111,0.0,0.0,95,0.00,,---,0.00,VWS V14.01,2013-12-28 08:18:00,
2013-12-28 02:20:00,34.0,32.7,30.29,ESE,111,0.0,0.0,95,0.00,,,0.00,Wunderground v.1.15,2013-12-28 08:20:00,
2013-12-28 02:23:00,34.0,32.7,30.29,ESE,111,0.0,0.0,95,0.00,,---,0.00,VWS V14.01,2013-12-28 08:23:00,
2013-12-28 02:25:00,34.1,32.8,30.29,ESE,111,0.0,0.0,95,0.00,,,0.00,Wunderground v.1.15,2013-12-28 08:25:00,
2013-12-28 02:28:00,34.1,32.8,30.29,ESE,109,0.0,0.0,95,0.00,,---,0.00,VWS V14.01,2013-12-28 08:28:00,
2013-12-28 02:30:00,34.1,32.8,30.29,ESE,111,0.0,0.0,95,0.00,,,0.00,Wunderground v.1.15,2013-12-28 08:30:00,
2013-12-28 02:34:00,34.1,32.8,30.29,ESE,109,0.0,0.0,95,0.00,,---,0.00,VWS V14.01,2013-12-28 08:34:00,
2013-12-28 02:35:00,34.1,32.8,30.29,ESE,111,0.0,0.0,95,0.00,,,0.00,Wunderground v.1.15,2013-12-28 08:35:00,
2013-12-28 02:39:00,34.3,33.0,30.29,ESE,111,0.0,0.0,95,0.00,,---,0.00,VWS V14.01,2013-12-28 08:39:00,
2013-12-28 02:40:00,34.3,33.0,30.29,ESE,111,0.0,0.0,95,0.00,,,0.00,Wunderground v.1.15,2013-12-28 08:40:00,
2013-12-28 02:44:00,34.3,33.0,30.28,ESE,111,0.0,0.0,95,0.00,,---,0.00,VWS V14.01,2013-12-28 08:44:00,
2013-12-28 02:45:00,34.3,33.0,30.28,ESE,111,0.0,0.0,95,0.00,,,0.00,Wunderground v.1.15,2013-12-28 08:45:00,
2013-12-28 02:49:00,34.3,33.0,30.29,ESE,111,0.0,0.0,95,0.00,,---,0.00,VWS V14.01,2013-12-28 08:49:00,
2013-12-28 02:50:00,34.3,33.0,30.28,ESE,109,0.0,0.0,95,0.00,,,0.00,Wunderground v.1.15,2013-12-28 08:50:00,
2013-12-28 02:54:00,34.4,33.1,30.28,ESE,111,0.0,0.0,95,0.00,,---,0.00,VWS V14.01,2013-12-28 08:54:00,
2013-12-28 02:55:00,34.4,33.1,30.28,ESE,111,0.0,0.0,95,0.00,,,0.00,Wunderground v.1.15,2013-12-28 08:55:00,
2013-12-28 02:59:00,34.6,33.3,30.28,ESE,111,0.0,0.0,95,0.00,,---,0.00,VWS V14.01,2013-12-28 08:59:00,
2013-12-28 03:00:00,34.6,33.3,30.28,ESE,111,0.0,0.0,95,0.00,,,0.00,Wunderground v.1.15,2013-12-28 09:00:00,
2013-12-28 03:04:00,34.6,33.3,30.27,ESE,111,0.0,0.0,95,0.00,,---,0.00,VWS V14.01,2013-12-28 09:04:00,
2013-12-28 03:05:00,34.6,33.3,30.27,ESE,111,0.0,0.0,95,0.00,,,0.00,Wunderground v.1.15,2013-12-28 09:05:00,
2013-12-28 03:10:00,34.6,33.3,30.27,ESE,109,0.0,0.0,95,0.00,,---,0.00,VWS V14.01,2013-12-28 09:10:00,
2013-12-28 03:15:00,34.7,33.4,30.27,ESE,111,0.0,0.0,95,0.00,,---,0.00,VWS V14.01,2013-12-28 09:15:00,
2013-12-28 03:20:00,34.9,33.6,30.27,ESE,111,0.0,0.0,95,0.00,,---,0.00,VWS V14.01,2013-12-28 09:20:00,
2013-12-28 03:25:00,34.9,33.6,30.27,ESE,111,0.0,0.0,95,0.00,,---,0.00,VWS V14.01,2013-12-28 09:25:00,
2013-12-28 03:30:00,35.0,33.7,30.27,ESE,109,0.0,0.0,95,0.00,,---,0.00,VWS V14.01,2013-12-28 09:30:00,
2013-12-28 03:35:00,35.0,33.7,30.27,ESE,111,0.0,0.0,95,0.00,,,0.00,Wunderground v.1.15,2013-12-28 09:35:00,
2013-12-28 03:40:00,35.0,33.7,30.27,ESE,111,0.0,0.0,95,0.00,,,0.00,Wunderground v.1.15,2013-12-28 09:40:00,
2013-12-28 03:45:00,35.2,34.2,30.27,ESE,111,0.0,0.0,96,0.00,,---,0.00,VWS V14.01,2013-12-28 09:45:00,
2013-12-28 03:50:00,35.2,34.2,30.26,ESE,111,0.0,0.0,96,0.00,,,0.00,Wunderground v.1.15,2013-12-28 09:50:00,
2013-12-28 03:51:00,35.2,34.2,30.26,ESE,109,0.0,0.0,96,0.00,,---,0.00,VWS V14.01,2013-12-28 09:51:00,
2013-12-28 03:55:00,35.2,33.9,30.26,ESE,111,0.0,0.0,95,0.00,,,0.00,Wunderground v.1.15,2013-12-28 09:55:00,
2013-12-28 03:56:00,35.2,33.9,30.26,ESE,111,0.0,0.0,95,0.00,,---,0.00,VWS V14.01,2013-12-28 09:56:00,
2013-12-28 04:00:00,35.2,34.2,30.26,ESE,111,0.0,0.0,96,0.00,,,0.00,Wunderground v.1.15,2013-12-28 10:00:00,
2013-12-28 04:01:00,35.2,34.2,30.27,ESE,111,0.0,0.0,96,0.00,,---,0.00,VWS V14.01,2013-12-28 10:01:00,
2013-12-28 04:05:00,35.3,34.3,30.26,ESE,111,0.0,0.0,96,0.00,,,0.00,Wunderground v.1.15,2013-12-28 10:05:00,
2013-12-28 04:06:00,35.3,34.3,30.26,ESE,111,0.0,0.0,96,0.00,,---,0.00,VWS V14.01,2013-12-28 10:06:00,
2013-12-28 04:10:00,35.5,34.5,30.27,ESE,111,0.0,0.0,96,0.00,,,0.00,Wunderground v.1.15,2013-12-28 10:10:00,
2013-12-28 04:11:00,35.5,34.5,30.27,ESE,111,0.0,0.0,96,0.00,,---,0.00,VWS V14.01,2013-12-28 10:11:00,
2013-12-28 04:15:00,35.5,34.5,30.26,ESE,111,0.0,0.0,96,0.00,,,0.00,Wunderground v.1.15,2013-12-28 10:15:00,
2013-12-28 04:16:00,35.6,34.6,30.26,ESE,111,0.0,0.0,96,0.00,,---,0.00,VWS V14.01,2013-12-28 10:16:00,
2013-12-28 04:21:00,35.6,34.6,30.26,ESE,111,0.0,0.0,96,0.00,,---,0.00,VWS V14.01,2013-12-28 10:21:00,
2013-12-28 04:25:00,35.6,34.6,30.26,ESE,111,0.0,0.0,96,0.00,,,0.00,Wunderground v.1.15,2013-12-28 10:25:00,
2013-12-28 04:27:00,35.8,34.8,30.26,ESE,111,0.0,0.0,96,0.00,,---,0.00,VWS V14.01,2013-12-28 10:27:00,
2013-12-28 04:30:00,35.8,34.8,30.26,ESE,111,0.0,0.0,96,0.00,,,0.00,Wunderground v.1.15,2013-12-28 10:30:00,
2013-12-28 04:33:00,35.8,34.8,30.26,ESE,111,0.0,0.0,96,0.00,,---,0.00,VWS V14.01,2013-12-28 10:33:00,
2013-12-28 04:35:00,35.8,34.8,30.26,ESE,111,0.0,0.0,96,0.00,,,0.00,Wunderground v.1.15,2013-12-28 10:35:00,
2013-12-28 04:38:00,35.8,34.8,30.26,ESE,111,0.0,0.0,96,0.00,,---,0.00,VWS V14.01,2013-12-28 10:38:00,
2013-12-28 04:40:00,35.9,34.9,30.26,ESE,111,0.0,0.0,96,0.00,,,0.00,Wunderground v.1.15,2013-12-28 10:40:00,
2013-12-28 04:43:00,35.9,34.9,30.26,ESE,111,0.0,0.0,96,0.00,,---,0.00,VWS V14.01,2013-12-28 10:43:00,
2013-12-28 04:45:00,35.9,34.9,30.26,ESE,109,0.0,0.0,96,0.00,,,0.00,Wunderground v.1.15,2013-12-28 10:45:00,
2013-12-28 04:48:00,35.9,34.9,30.26,ESE,111,0.0,0.0,96,0.00,,---,0.00,VWS V14.01,2013-12-28 10:48:00,
2013-12-28 04:53:00,35.9,34.9,30.26,ESE,111,0.0,0.0,96,0.00,,---,0.00,VWS V14.01,2013-12-28 10:53:00,
2013-12-28 04:55:00,35.9,34.9,30.25,ESE,111,0.0,0.0,96,0.00,,,0.00,Wunderground v.1.15,2013-12-28 10:55:00,
2013-12-28 04:59:00,35.8,34.8,30.25,ESE,111,0.0,0.0,96,0.00,,---,0.00,VWS V14.01,2013-12-28 10:59:00,
2013-12-28 05:00:00,35.8,34.5,30.25,ESE,111,0.0,0.0,95,0.00,,,0.00,Wunderground v.1.15,2013-12-28 11:00:00,
2013-12-28 05:02:00,35.8,34.8,30.25,ESE,111,0.0,0.0,96,0.00,,---,0.00,VWS V14.01,2013-12-28 11:02:00,
2013-12-28 05:05:00,35.8,34.8,30.25,ESE,111,0.0,0.0,96,0.00,,,0.00,Wunderground v.1.15,2013-12-28 11:05:00,
2013-12-28 05:08:00,35.8,34.8,30.25,ESE,111,0.0,0.0,96,0.00,,---,0.00,VWS V14.01,2013-12-28 11:08:00,
2013-12-28 05:13:00,35.8,34.8,30.25,ESE,109,0.0,0.0,96,0.00,,---,0.00,VWS V14.01,2013-12-28 11:13:00,
2013-12-28 05:15:00,35.8,34.8,30.25,ESE,109,0.0,0.0,96,0.00,,,0.00,Wunderground v.1.15,2013-12-28 11:15:00,
2013-12-28 05:18:00,35.8,34.8,30.25,ESE,111,0.0,0.0,96,0.00,,---,0.00,VWS V14.01,2013-12-28 11:18:00,
2013-12-28 05:23:00,35.8,34.8,30.25,ESE,111,0.0,0.0,96,0.00,,---,0.00,VWS V14.01,2013-12-28 11:23:00,
2013-12-28 05:25:00,35.8,34.8,30.25,ESE,111,0.0,0.0,96,0.00,,,0.00,Wunderground v.1.15,2013-12-28 11:25:00,
2013-12-28 05:28:00,35.8,34.8,30.25,ESE,111,0.0,0.0,96,0.00,,---,0.00,VWS V14.01,2013-12-28 11:28:00,
2013-12-28 05:30:00,35.8,34.8,30.24,ESE,111,0.0,0.0,96,0.00,,,0.00,Wunderground v.1.15,2013-12-28 11:30:00,
2013-12-28 05:33:00,35.8,34.8,30.24,ESE,111,0.0,0.0,96,0.00,,---,0.00,VWS V14.01,2013-12-28 11:33:00,
2013-12-28 05:35:00,35.8,34.8,30.24,ESE,111,0.0,0.0,96,0.00,,,0.00,Wunderground v.1.15,2013-12-28 11:35:00,
2013-12-28 05:38:00,35.9,34.9,30.24,ESE,111,0.0,0.0,96,0.00,,---,0.00,VWS V14.01,2013-12-28 11:38:00,
2013-12-28 05:40:00,35.9,34.9,30.24,ESE,111,0.0,0.0,96,0.00,,,0.00,Wunderground v.1.15,2013-12-28 11:40:00,
2013-12-28 05:44:00,35.9,34.9,30.24,ESE,111,0.0,0.0,96,0.00,,---,0.00,VWS V14.01,2013-12-28 11:44:00,
2013-12-28 05:45:00,35.9,34.9,30.24,ESE,111,0.0,0.0,96,0.00,,,0.00,Wunderground v.1.15,2013-12-28 11:45:00,
2013-12-28 05:49:00,35.9,34.9,30.24,ESE,111,0.0,0.0,96,0.00,,---,0.00,VWS V14.01,2013-12-28 11:49:00,
2013-12-28 05:50:00,35.9,34.9,30.24,ESE,111,0.0,0.0,96,0.00,,,0.00,Wunderground v.1.15,2013-12-28 11:50:00,
2013-12-28 05:54:00,36.0,35.0,30.24,ESE,111,0.0,0.0,96,0.00,,---,0.00,VWS V14.01,2013-12-28 11:54:00,
2013-12-28 05:59:00,36.0,35.0,30.24,ESE,111,0.0,0.0,96,0.00,,---,0.00,VWS V14.01,2013-12-28 11:59:00,
2013-12-28 06:00:00,36.0,35.0,30.24,ESE,109,0.0,0.0,96,0.00,,,0.00,Wunderground v.1.15,2013-12-28 12:00:00,
2013-12-28 06:04:00,36.0,35.0,30.25,ESE,111,0.0,0.0,96,0.00,,---,0.00,VWS V14.01,2013-12-28 12:04:00,
2013-12-28 06:05:00,36.0,35.0,30.25,ESE,111,0.0,0.0,96,0.00,,,0.00,Wunderground v.1.15,2013-12-28 12:05:00,
2013-12-28 06:09:00,35.9,34.9,30.25,ESE,109,0.0,0.0,96,0.00,,---,0.00,VWS V14.01,2013-12-28 12:09:00,
2013-12-28 06:10:00,35.9,34.9,30.25,ESE,111,0.0,0.0,96,0.00,,,0.00,Wunderground v.1.15,2013-12-28 12:10:00,
2013-12-28 06:15:00,35.9,34.9,30.26,ESE,111,0.0,0.0,96,0.00,,---,0.00,VWS V14.01,2013-12-28 12:15:00,
2013-12-28 06:20:00,35.9,34.9,30.25,ESE,111,0.0,0.0,96,0.00,,,0.00,Wunderground v.1.15,2013-12-28 12:20:00,
2013-12-28 06:25:00,35.8,34.8,30.26,ESE,111,0.0,0.0,96,0.00,,,0.00,Wunderground v.1.15,2013-12-28 12:25:00,
2013-12-28 06:30:00,35.8,34.8,30.26,ESE,111,0.0,0.0,96,0.00,,---,0.00,VWS V14.01,2013-12-28 12:30:00,
2013-12-28 06:35:00,35.8,34.8,30.26,ESE,111,0.0,0.0,96,0.00,,,0.00,Wunderground v.1.15,2013-12-28 12:35:00,
2013-12-28 06:40:00,35.6,34.6,30.26,ESE,111,0.0,0.0,96,0.00,,,0.00,Wunderground v.1.15,2013-12-28 12:40:00,
2013-12-28 06:45:00,35.6,34.6,30.26,ESE,111,0.0,0.0,96,0.00,,,0.00,Wunderground v.1.15,2013-12-28 12:45:00,
2013-12-28 06:50:00,35.6,34.6,30.25,ESE,111,0.0,0.0,96,0.00,,,0.00,Wunderground v.1.15,2013-12-28 12:50:00,
2013-12-28 06:51:00,35.6,34.6,30.25,ESE,111,0.0,0.0,96,0.00,,---,0.00,VWS V14.01,2013-12-28 12:51:00,
2013-12-28 06:55:00,35.6,34.6,30.25,ESE,111,0.0,0.0,96,0.00,,,0.00,Wunderground v.1.15,2013-12-28 12:55:00,
2013-12-28 06:56:00,35.6,34.6,30.25,ESE,111,0.0,0.0,96,0.00,,---,0.00,VWS V14.01,2013-12-28 12:56:00,
2013-12-28 07:00:00,35.6,34.6,30.25,ESE,111,0.0,0.0,96,0.00,,,0.00,Wunderground v.1.15,2013-12-28 13:00:00,
2013-12-28 07:01:00,35.6,34.6,30.25,ESE,111,0.0,0.0,96,0.00,,---,0.00,VWS V14.01,2013-12-28 13:01:00,
2013-12-28 07:05:00,35.6,34.6,30.25,ESE,111,0.0,0.0,96,0.00,,,0.00,Wunderground v.1.15,2013-12-28 13:05:00,
2013-12-28 07:06:00,35.6,34.6,30.25,ESE,111,0.0,0.0,96,0.00,,---,0.00,VWS V14.01,2013-12-28 13:06:00,
2013-12-28 07:10:00,35.5,34.5,30.25,ESE,111,0.0,0.0,96,0.00,,,0.00,Wunderground v.1.15,2013-12-28 13:10:00,
2013-12-28 07:11:00,35.5,34.5,30.25,ESE,111,0.0,0.0,96,0.00,,---,0.00,VWS V14.01,2013-12-28 13:11:00,
2013-12-28 07:15:00,35.5,34.2,30.25,ESE,111,0.0,0.0,95,0.00,,,0.00,Wunderground v.1.15,2013-12-28 13:15:00,
2013-12-28 07:16:00,35.3,34.0,30.25,ESE,111,0.0,0.0,95,0.00,,---,0.00,VWS V14.01,2013-12-28 13:16:00,
2013-12-28 07:20:00,35.3,34.0,30.25,ESE,111,0.0,0.0,95,0.00,,,0.00,Wunderground v.1.15,2013-12-28 13:20:00,
2013-12-28 07:21:00,35.3,34.0,30.25,ESE,111,0.0,0.0,95,0.00,,---,0.00,VWS V14.01,2013-12-28 13:21:00,
2013-12-28 07:25:00,35.2,33.9,30.25,ESE,111,0.0,0.0,95,0.00,,,0.00,Wunderground v.1.15,2013-12-28 13:25:00,
2013-12-28 07:26:00,35.0,33.7,30.25,ESE,111,0.0,0.0,95,0.00,,---,0.00,VWS V14.01,2013-12-28 13:26:00,
2013-12-28 07:31:00,35.0,33.7,30.25,ESE,111,0.0,0.0,95,0.00,,---,0.00,VWS V14.01,2013-12-28 13:31:00,
2013-12-28 07:35:00,35.0,34.0,30.25,ESE,111,0.0,0.0,96,0.00,,,0.00,Wunderground v.1.15,2013-12-28 13:35:00,
2013-12-28 07:36:00,35.0,34.0,30.25,ESE,111,0.0,0.0,96,0.00,,---,0.00,VWS V14.01,2013-12-28 13:36:00,
2013-12-28 07:41:00,34.9,33.9,30.26,ESE,109,0.0,0.0,96,0.00,,---,0.00,VWS V14.01,2013-12-28 13:41:00,
2013-12-28 07:45:00,34.9,33.9,30.26,ESE,111,0.0,0.0,96,0.00,,,0.00,Wunderground v.1.15,2013-12-28 13:45:00,
2013-12-28 07:46:00,34.9,33.9,30.26,ESE,111,0.0,0.0,96,0.00,,---,0.00,VWS V14.01,2013-12-28 13:46:00,
2013-12-28 07:50:00,34.9,33.9,30.26,ESE,111,0.0,0.0,96,0.00,,,0.00,Wunderground v.1.15,2013-12-28 13:50:00,
2013-12-28 07:52:00,35.0,34.0,30.26,ESE,111,0.0,0.0,96,0.00,,---,0.00,VWS V14.01,2013-12-28 13:52:00,
2013-12-28 07:55:00,35.0,34.0,30.25,ESE,111,0.0,0.0,96,0.00,,,0.00,Wunderground v.1.15,2013-12-28 13:55:00,
2013-12-28 07:57:00,35.0,34.0,30.25,ESE,111,0.0,0.0,96,0.00,,---,0.00,VWS V14.01,2013-12-28 13:57:00,
2013-12-28 08:00:00,35.3,34.3,30.26,ESE,111,0.0,0.0,96,0.00,,,0.00,Wunderground v.1.15,2013-12-28 14:00:00,
2013-12-28 08:02:00,35.3,34.3,30.26,ESE,111,0.0,0.0,96,0.00,,---,0.00,VWS V14.01,2013-12-28 14:02:00,
2013-12-28 08:05:00,35.5,34.5,30.25,ESE,111,0.0,0.0,96,0.00,,,0.00,Wunderground v.1.15,2013-12-28 14:05:00,
2013-12-28 08:07:00,35.5,34.5,30.25,ESE,111,0.0,0.0,96,0.00,,---,0.00,VWS V14.01,2013-12-28 14:07:00,
2013-12-28 08:10:00,35.5,34.5,30.25,ESE,111,0.0,0.0,96,0.00,,,0.00,Wunderground v.1.15,2013-12-28 14:10:00,
2013-12-28 08:12:00,35.5,34.5,30.25,ESE,111,0.0,0.0,96,0.00,,---,0.00,VWS V14.01,2013-12-28 14:12:00,
2013-12-28 08:15:00,35.6,34.6,30.25,ESE,111,0.0,0.0,96,0.00,,,0.00,Wunderground v.1.15,2013-12-28 14:15:00,
2013-12-28 08:17:00,35.6,34.6,30.25,ESE,111,0.0,0.0,96,0.00,,---,0.00,VWS V14.01,2013-12-28 14:17:00,
2013-12-28 08:20:00,35.8,34.8,30.26,ESE,111,0.0,0.0,96,0.00,,,0.00,Wunderground v.1.15,2013-12-28 14:20:00,
2013-12-28 08:22:00,35.8,34.8,30.26,ESE,111,0.0,0.0,96,0.00,,---,0.00,VWS V14.01,2013-12-28 14:22:00,
2013-12-28 08:25:00,35.9,34.9,30.26,ESE,111,0.0,0.0,96,0.00,,,0.00,Wunderground v.1.15,2013-12-28 14:25:00,
2013-12-28 08:27:00,35.9,34.9,30.26,ESE,111,0.0,0.0,96,0.00,,---,0.00,VWS V14.01,2013-12-28 14:27:00,
2013-12-28 08:30:00,36.0,35.0,30.26,ESE,111,0.0,0.0,96,0.00,,,0.00,Wunderground v.1.15,2013-12-28 14:30:00,
2013-12-28 08:32:00,36.2,35.2,30.26,ESE,109,0.0,0.0,96,0.00,,---,0.00,VWS V14.01,2013-12-28 14:32:00,
2013-12-28 08:35:00,36.3,35.3,30.26,ESE,111,0.0,0.0,96,0.00,,,0.00,Wunderground v.1.15,2013-12-28 14:35:00,
2013-12-28 08:37:00,36.5,35.5,30.26,ESE,111,0.0,0.0,96,0.00,,---,0.00,VWS V14.01,2013-12-28 14:37:00,
2013-12-28 08:40:00,36.6,35.6,30.26,ESE,109,0.0,0.0,96,0.00,,,0.00,Wunderground v.1.15,2013-12-28 14:40:00,
2013-12-28 08:43:00,36.8,35.8,30.25,ESE,111,0.0,0.0,96,0.00,,---,0.00,VWS V14.01,2013-12-28 14:43:00,
2013-12-28 08:45:00,37.0,36.0,30.25,ESE,109,0.0,0.0,96,0.00,,,0.00,Wunderground v.1.15,2013-12-28 14:45:00,
2013-12-28 08:48:00,37.2,36.2,30.25,ESE,111,0.0,0.0,96,0.00,,---,0.00,VWS V14.01,2013-12-28 14:48:00,
2013-12-28 08:50:00,37.3,36.3,30.26,ESE,111,0.0,0.0,96,0.00,,,0.00,Wunderground v.1.15,2013-12-28 14:50:00,
2013-12-28 08:53:00,37.5,36.5,30.26,ESE,111,0.0,0.0,96,0.00,,---,0.00,VWS V14.01,2013-12-28 14:53:00,
2013-12-28 08:55:00,37.6,36.6,30.26,ESE,111,0.0,0.0,96,0.00,,,0.00,Wunderground v.1.15,2013-12-28 14:55:00,
2013-12-28 08:58:00,37.8,36.8,30.26,ESE,111,0.0,0.0,96,0.00,,---,0.00,VWS V14.01,2013-12-28 14:58:00,
2013-12-28 09:00:00,37.8,36.8,30.26,ESE,111,0.0,0.0,96,0.00,,,0.00,Wunderground v.1.15,2013-12-28 15:00:00,
2013-12-28 09:04:00,38.0,37.0,30.26,ESE,111,0.0,0.0,96,0.00,,---,0.00,VWS V14.01,2013-12-28 15:04:00,
2013-12-28 09:05:00,38.2,37.2,30.26,ESE,111,0.0,0.0,96,0.00,,,0.00,Wunderground v.1.15,2013-12-28 15:05:00,
2013-12-28 09:09:00,38.6,37.6,30.26,ESE,111,0.0,0.0,96,0.00,,---,0.00,VWS V14.01,2013-12-28 15:09:00,
2013-12-28 09:10:00,38.8,37.8,30.26,ESE,111,0.0,0.0,96,0.00,,,0.00,Wunderground v.1.15,2013-12-28 15:10:00,
2013-12-28 09:14:00,39.2,38.2,30.25,ESE,109,0.0,0.0,96,0.00,,---,0.00,VWS V14.01,2013-12-28 15:14:00,
2013-12-28 09:15:00,39.3,38.3,30.25,ESE,111,0.0,0.0,96,0.00,,,0.00,Wunderground v.1.15,2013-12-28 15:15:00,
2013-12-28 09:20:00,39.6,38.6,30.26,ESE,111,0.0,2.0,96,0.00,,---,0.00,VWS V14.01,2013-12-28 15:20:00,
2013-12-28 09:25:00,40.3,38.4,30.25,ESE,111,0.0,0.0,93,0.00,,---,0.00,VWS V14.01,2013-12-28 15:25:00,
2013-12-28 09:30:00,40.9,38.8,30.25,ESE,109,0.0,0.0,92,0.00,,---,0.00,VWS V14.01,2013-12-28 15:30:00,
2013-12-28 09:35:00,41.3,38.6,30.25,ESE,111,0.0,0.0,90,0.00,,---,0.00,VWS V14.01,2013-12-28 15:35:00,
2013-12-28 09:40:00,41.9,39.2,30.25,ESE,111,0.0,0.0,90,0.00,,,0.00,Wunderground v.1.15,2013-12-28 15:40:00,
2013-12-28 09:45:00,42.8,40.1,30.25,ESE,111,0.0,0.0,90,0.00,,,0.00,Wunderground v.1.15,2013-12-28 15:45:00,
2013-12-28 09:50:00,43.3,39.1,30.25,ESE,107,0.0,3.0,85,0.00,,,0.00,Wunderground v.1.15,2013-12-28 15:50:00,
2013-12-28 09:55:00,44.2,39.1,30.25,ESE,105,1.0,3.0,82,0.00,,,0.00,Wunderground v.1.15,2013-12-28 15:55:00,
2013-12-28 10:00:00,44.8,39.0,30.25,ESE,105,0.0,0.0,80,0.00,,,0.00,Wunderground v.1.15,2013-12-28 16:00:00,
2013-12-28 10:01:00,44.8,39.0,30.25,ESE,105,0.0,0.0,80,0.00,,---,0.00,VWS V14.01,2013-12-28 16:01:00,
2013-12-28 10:05:00,45.2,39.1,30.25,ESE,105,0.0,0.0,79,0.00,,,0.00,Wunderground v.1.15,2013-12-28 16:05:00,
2013-12-28 10:06:00,45.2,39.1,30.25,ESE,105,0.0,0.0,79,0.00,,---,0.00,VWS V14.01,2013-12-28 16:06:00,
2013-12-28 10:10:00,45.8,39.3,30.25,ESE,105,0.0,0.0,78,0.00,,,0.00,Wunderground v.1.15,2013-12-28 16:10:00,
2013-12-28 10:11:00,46.0,39.5,30.25,ESE,105,0.0,0.0,78,0.00,,---,0.00,VWS V14.01,2013-12-28 16:11:00,
2013-12-28 10:16:00,46.8,39.3,30.24,East,92,1.0,5.0,75,0.00,,---,0.00,VWS V14.01,2013-12-28 16:16:00,
2013-12-28 10:20:00,47.7,39.5,30.24,East,88,1.0,3.0,73,0.00,,,0.00,Wunderground v.1.15,2013-12-28 16:20:00,
2013-12-28 10:21:00,47.7,39.5,30.24,East,88,2.0,3.0,73,0.00,,---,0.00,VWS V14.01,2013-12-28 16:21:00,
2013-12-28 10:26:00,48.6,39.6,30.23,East,81,3.0,5.0,71,0.00,,---,0.00,VWS V14.01,2013-12-28 16:26:00,
2013-12-28 10:30:00,48.9,39.5,30.23,East,81,3.0,3.0,70,0.00,,,0.00,Wunderground v.1.15,2013-12-28 16:30:00,
2013-12-28 10:31:00,49.4,40.0,30.23,East,83,2.0,3.0,70,0.00,,---,0.00,VWS V14.01,2013-12-28 16:31:00,
2013-12-28 10:36:00,50.1,38.8,30.23,East,84,2.0,3.0,65,0.00,,---,0.00,VWS V14.01,2013-12-28 16:36:00,
2013-12-28 10:40:00,50.4,39.1,30.23,East,83,2.0,2.0,65,0.00,,,0.00,Wunderground v.1.15,2013-12-28 16:40:00,
2013-12-28 10:41:00,50.4,39.1,30.23,East,83,2.0,2.0,65,0.00,,---,0.00,VWS V14.01,2013-12-28 16:41:00,
2013-12-28 10:45:00,51.1,38.5,30.23,East,88,2.0,2.0,62,0.00,,,0.00,Wunderground v.1.15,2013-12-28 16:45:00,
2013-12-28 10:46:00,51.3,38.7,30.23,ESE,122,5.0,6.0,62,0.00,,---,0.00,VWS V14.01,2013-12-28 16:46:00,
2013-12-28 10:50:00,51.6,39.0,30.22,SE,129,3.0,3.0,62,0.00,,,0.00,Wunderground v.1.15,2013-12-28 16:50:00,
2013-12-28 10:51:00,51.6,39.0,30.22,SE,129,2.0,2.0,62,0.00,,---,0.00,VWS V14.01,2013-12-28 16:51:00,
2013-12-28 10:55:00,52.0,39.0,30.22,ESE,112,3.0,3.0,61,0.00,,,0.00,Wunderground v.1.15,2013-12-28 16:55:00,
2013-12-28 10:57:00,52.3,39.3,30.22,ESE,107,1.0,5.0,61,0.00,,---,0.00,VWS V14.01,2013-12-28 16:57:00,
2013-12-28 11:00:00,52.5,39.4,30.22,ESE,104,2.0,2.0,61,0.00,,,0.00,Wunderground v.1.15,2013-12-28 17:00:00,
2013-12-28 11:02:00,52.5,39.0,30.22,ESE,102,2.0,5.0,60,0.00,,---,0.00,VWS V14.01,2013-12-28 17:02:00,
2013-12-28 11:05:00,53.1,38.7,30.22,East,92,2.0,2.0,58,0.00,,,0.00,Wunderground v.1.15,2013-12-28 17:05:00,
2013-12-28 11:07:00,53.2,39.7,30.22,East,101,1.0,6.0,60,0.00,,---,0.00,VWS V14.01,2013-12-28 17:07:00,
2013-12-28 11:10:00,53.6,39.6,30.22,SE,145,2.0,6.0,59,0.00,,,0.00,Wunderground v.1.15,2013-12-28 17:10:00,
2013-12-28 11:12:00,53.9,39.9,30.22,SE,145,3.0,6.0,59,0.00,,---,0.00,VWS V14.01,2013-12-28 17:12:00,
2013-12-28 11:15:00,54.1,39.6,30.22,SSE,159,3.0,6.0,58,0.00,,,0.00,Wunderground v.1.15,2013-12-28 17:15:00,
2013-12-28 11:17:00,54.1,39.7,30.22,SSE,162,2.0,8.0,58,0.00,,---,0.00,VWS V14.01,2013-12-28 17:17:00,
2013-12-28 11:20:00,54.2,39.3,30.21,ENE,66,3.0,3.0,57,0.00,,,0.00,Wunderground v.1.15,2013-12-28 17:20:00,
2013-12-28 11:22:00,54.2,39.3,30.21,East,101,3.0,5.0,57,0.00,,---,0.00,VWS V14.01,2013-12-28 17:22:00,
2013-12-28 11:25:00,54.4,39.0,30.20,East,92,3.0,5.0,56,0.00,,,0.00,Wunderground v.1.15,2013-12-28 17:25:00,
2013-12-28 11:27:00,54.4,39.0,30.20,SE,138,5.0,5.0,56,0.00,,---,0.00,VWS V14.01,2013-12-28 17:27:00,
2013-12-28 11:30:00,54.4,39.5,30.19,SSE,150,3.0,3.0,57,0.00,,,0.00,Wunderground v.1.15,2013-12-28 17:30:00,
2013-12-28 11:32:00,54.7,39.3,30.19,ESE,108,2.0,3.0,56,0.00,,---,0.00,VWS V14.01,2013-12-28 17:32:00,
2013-12-28 11:35:00,54.5,38.7,30.19,ENE,66,3.0,6.0,55,0.00,,,0.00,Wunderground v.1.15,2013-12-28 17:35:00,
2013-12-28 11:38:00,54.2,38.4,30.18,ENE,74,3.0,7.0,55,0.00,,---,0.00,VWS V14.01,2013-12-28 17:38:00,
2013-12-28 11:40:00,53.9,38.6,30.18,ENE,71,3.0,3.0,56,0.00,,,0.00,Wunderground v.1.15,2013-12-28 17:40:00,
2013-12-28 11:43:00,53.6,38.3,30.18,East,84,0.0,5.0,56,0.00,,---,0.00,VWS V14.01,2013-12-28 17:43:00,
2013-12-28 11:45:00,53.8,38.9,30.18,ESE,107,3.0,3.0,57,0.00,,,0.00,Wunderground v.1.15,2013-12-28 17:45:00,
2013-12-28 11:48:00,54.1,38.8,30.17,East,99,0.0,5.0,56,0.00,,---,0.00,VWS V14.01,2013-12-28 17:48:00,
2013-12-28 11:50:00,54.2,39.3,30.17,ESE,104,2.0,3.0,57,0.00,,,0.00,Wunderground v.1.15,2013-12-28 17:50:00,
2013-12-28 11:53:00,53.9,38.1,30.17,ENE,74,6.0,6.0,55,0.00,,---,0.00,VWS V14.01,2013-12-28 17:53:00,
2013-12-28 11:55:00,53.8,38.0,30.17,ENE,77,3.0,3.0,55,0.00,,,0.00,Wunderground v.1.15,2013-12-28 17:55:00,
2013-12-28 11:58:00,53.8,38.5,30.17,East,97,2.0,8.0,56,0.00,,---,0.00,VWS V14.01,2013-12-28 17:58:00,
2013-12-28 12:00:00,53.9,38.1,30.16,East,95,4.0,4.0,55,0.00,,,0.00,Wunderground v.1.15,2013-12-28 18:00:00,
2013-12-28 12:03:00,54.1,38.3,30.16,East,94,1.0,5.0,55,0.00,,---,0.00,VWS V14.01,2013-12-28 18:03:00,
2013-12-28 12:05:00,54.4,38.6,30.16,East,85,3.0,4.0,55,0.00,,,0.00,Wunderground v.1.15,2013-12-28 18:05:00,
2013-12-28 12:08:00,54.4,38.1,30.16,ENE,68,2.0,6.0,54,0.00,,---,0.00,VWS V14.01,2013-12-28 18:08:00,
2013-12-28 12:10:00,54.7,38.4,30.16,ENE,75,3.0,3.0,54,0.00,,,0.00,Wunderground v.1.15,2013-12-28 18:10:00,
2013-12-28 12:13:00,54.8,37.5,30.15,ENE,73,1.0,5.0,52,0.00,,---,0.00,VWS V14.01,2013-12-28 18:13:00,
2013-12-28 12:18:00,55.4,38.1,30.15,ENE,74,0.0,5.0,52,0.00,,---,0.00,VWS V14.01,2013-12-28 18:18:00,
2013-12-28 12:20:00,55.4,38.5,30.14,ENE,74,2.0,2.0,53,0.00,,,0.00,Wunderground v.1.15,2013-12-28 18:20:00,
2013-12-28 12:23:00,55.3,38.5,30.14,ENE,67,5.0,6.0,53,0.00,,---,0.00,VWS V14.01,2013-12-28 18:23:00,
2013-12-28 12:25:00,55.1,38.3,30.14,ENE,67,3.0,3.0,53,0.00,,,0.00,Wunderground v.1.15,2013-12-28 18:25:00,
2013-12-28 12:29:00,55.1,37.8,30.14,ENE,73,5.0,6.0,52,0.00,,---,0.00,VWS V14.01,2013-12-28 18:29:00,
2013-12-28 12:30:00,55.0,37.7,30.14,ENE,67,4.0,4.0,52,0.00,,,0.00,Wunderground v.1.15,2013-12-28 18:30:00,
2013-12-28 12:34:00,55.0,39.2,30.14,East,94,3.0,5.0,55,0.00,,---,0.00,VWS V14.01,2013-12-28 18:34:00,
2013-12-28 12:35:00,55.0,38.6,30.14,ESE,107,4.0,4.0,54,0.00,,,0.00,Wunderground v.1.15,2013-12-28 18:35:00,
2013-12-28 12:39:00,55.1,38.3,30.13,ENE,63,6.0,10.0,53,0.00,,---,0.00,VWS V14.01,2013-12-28 18:39:00,
2013-12-28 12:40:00,55.1,38.3,30.13,ENE,63,3.0,3.0,53,0.00,,,0.00,Wunderground v.1.15,2013-12-28 18:40:00,
2013-12-28 12:44:00,55.4,38.6,30.12,ESE,123,2.0,6.0,53,0.00,,---,0.00,VWS V14.01,2013-12-28 18:44:00,
2013-12-28 12:45:00,55.4,38.1,30.12,SE,125,3.0,3.0,52,0.00,,,0.00,Wunderground v.1.15,2013-12-28 18:45:00,
2013-12-28 12:50:00,55.7,38.8,30.12,South,183,2.0,5.0,53,0.00,,---,0.00,VWS V14.01,2013-12-28 18:50:00,
2013-12-28 12:55:00,55.4,38.1,30.11,ESE,104,3.0,3.0,52,0.00,,,0.00,Wunderground v.1.15,2013-12-28 18:55:00,
2013-12-28 13:00:00,55.3,38.4,30.11,ESE,104,2.0,2.0,53,0.00,,,0.00,Wunderground v.1.15,2013-12-28 19:00:00,
2013-12-28 13:05:00,55.6,37.2,30.11,SE,142,2.0,8.0,50,0.00,,,0.00,Wunderground v.1.15,2013-12-28 19:05:00,
2013-12-28 13:06:00,55.6,37.3,30.11,SE,142,1.0,5.0,50,0.00,,---,0.00,VWS V14.01,2013-12-28 19:06:00,
2013-12-28 13:10:00,55.7,37.8,30.10,South,179,3.0,8.0,51,0.00,,,0.00,Wunderground v.1.15,2013-12-28 19:10:00,
2013-12-28 13:11:00,55.7,37.9,30.10,South,179,3.0,5.0,51,0.00,,---,0.00,VWS V14.01,2013-12-28 19:11:00,
2013-12-28 13:15:00,55.6,37.7,30.10,South,171,3.0,8.0,51,0.00,,,0.00,Wunderground v.1.15,2013-12-28 19:15:00,
2013-12-28 13:16:00,55.4,37.6,30.10,South,176,5.0,5.0,51,0.00,,---,0.00,VWS V14.01,2013-12-28 19:16:00,
2013-12-28 13:20:00,55.3,37.5,30.10,South,176,3.0,3.0,51,0.00,,,0.00,Wunderground v.1.15,2013-12-28 19:20:00,
2013-12-28 13:21:00,55.3,38.0,30.10,South,176,2.0,2.0,52,0.00,,---,0.00,VWS V14.01,2013-12-28 19:21:00,
2013-12-28 13:25:00,55.3,37.5,30.09,SW,225,3.0,8.0,51,0.00,,,0.00,Wunderground v.1.15,2013-12-28 19:25:00,
2013-12-28 13:26:00,55.3,37.0,30.09,SW,225,2.0,5.0,50,0.00,,---,0.00,VWS V14.01,2013-12-28 19:26:00,
2013-12-28 13:30:00,55.6,38.2,30.09,SW,221,3.0,8.0,52,0.00,,,0.00,Wunderground v.1.15,2013-12-28 19:30:00,
2013-12-28 13:31:00,55.6,38.3,30.09,SW,221,3.0,3.0,52,0.00,,---,0.00,VWS V14.01,2013-12-28 19:31:00,
2013-12-28 13:35:00,55.7,38.3,30.08,South,180,2.0,8.0,52,0.00,,,0.00,Wunderground v.1.15,2013-12-28 19:35:00,
2013-12-28 13:36:00,55.7,37.4,30.08,South,180,1.0,5.0,50,0.00,,---,0.00,VWS V14.01,2013-12-28 19:36:00,
2013-12-28 13:40:00,55.7,36.8,30.08,ENE,70,2.0,8.0,49,0.00,,,0.00,Wunderground v.1.15,2013-12-28 19:40:00,
2013-12-28 13:41:00,55.7,38.8,30.08,SE,125,5.0,5.0,53,0.00,,---,0.00,VWS V14.01,2013-12-28 19:41:00,
2013-12-28 13:45:00,56.2,39.3,30.08,SSE,164,3.0,8.0,53,0.00,,,0.00,Wunderground v.1.15,2013-12-28 19:45:00,
2013-12-28 13:47:00,56.3,37.4,30.08,ESE,123,3.0,7.0,49,0.00,,---,0.00,VWS V14.01,2013-12-28 19:47:00,
2013-12-28 13:50:00,56.7,37.2,30.08,ESE,118,3.0,3.0,48,0.00,,,0.00,Wunderground v.1.15,2013-12-28 19:50:00,
2013-12-28 13:52:00,56.7,37.2,30.08,ESE,119,1.0,2.0,48,0.00,,---,0.00,VWS V14.01,2013-12-28 19:52:00,
2013-12-28 13:55:00,56.7,36.1,30.07,ENE,68,2.0,8.0,46,0.00,,,0.00,Wunderground v.1.15,2013-12-28 19:55:00,
2013-12-28 13:57:00,56.6,37.2,30.07,ENE,70,2.0,6.0,48,0.00,,---,0.00,VWS V14.01,2013-12-28 19:57:00,
2013-12-28 14:00:00,56.5,36.5,30.07,SSE,162,2.0,2.0,47,0.00,,,0.00,Wunderground v.1.15,2013-12-28 20:00:00,
2013-12-28 14:02:00,56.5,36.5,30.08,SE,145,3.0,5.0,47,0.00,,---,0.00,VWS V14.01,2013-12-28 20:02:00,
2013-12-28 14:05:00,56.6,38.2,30.07,SE,140,2.0,8.0,50,0.00,,,0.00,Wunderground v.1.15,2013-12-28 20:05:00,
2013-12-28 14:07:00,56.6,38.7,30.07,SSE,157,3.0,5.0,51,0.00,,---,0.00,VWS V14.01,2013-12-28 20:07:00,
2013-12-28 14:10:00,56.6,38.7,30.06,East,99,2.0,8.0,51,0.00,,,0.00,Wunderground v.1.15,2013-12-28 20:10:00,
2013-12-28 14:12:00,56.6,38.7,30.06,SSE,157,5.0,5.0,51,0.00,,---,0.00,VWS V14.01,2013-12-28 20:12:00,
2013-12-28 14:15:00,56.5,37.6,30.06,SSE,156,2.0,8.0,49,0.00,,,0.00,Wunderground v.1.15,2013-12-28 20:15:00,
2013-12-28 14:18:00,56.3,37.4,30.06,SSE,159,2.0,6.0,49,0.00,,---,0.00,VWS V14.01,2013-12-28 20:18:00,
2013-12-28 14:22:00,56.0,37.1,30.06,SE,139,1.0,2.0,49,0.00,,---,0.00,VWS V14.01,2013-12-28 20:22:00,
2013-12-28 14:25:00,55.9,37.0,30.06,SE,139,2.0,8.0,49,0.00,,,0.00,Wunderground v.1.15,2013-12-28 20:25:00,
2013-12-28 14:27:00,55.7,36.8,30.06,East,84,3.0,5.0,49,0.00,,---,0.00,VWS V14.01,2013-12-28 20:27:00,
2013-12-28 14:30:00,55.6,36.7,30.06,ENE,74,2.0,8.0,49,0.00,,,0.00,Wunderground v.1.15,2013-12-28 20:30:00,
2013-12-28 14:33:00,55.4,36.6,30.06,ENE,71,3.0,5.0,49,0.00,,---,0.00,VWS V14.01,2013-12-28 20:33:00,
2013-12-28 14:35:00,55.3,36.5,30.05,ENE,71,3.0,8.0,49,0.00,,,0.00,Wunderground v.1.15,2013-12-28 20:35:00,
2013-12-28 14:38:00,55.4,37.6,30.05,East,92,3.0,5.0,51,0.00,,---,0.00,VWS V14.01,2013-12-28 20:38:00,
2013-12-28 14:40:00,55.6,37.7,30.05,SE,138,2.0,8.0,51,0.00,,,0.00,Wunderground v.1.15,2013-12-28 20:40:00,
2013-12-28 14:43:00,55.6,36.8,30.05,SE,139,2.0,6.0,49,0.00,,---,0.00,VWS V14.01,2013-12-28 20:43:00,
2013-12-28 14:45:00,55.4,36.5,30.05,SE,139,2.0,8.0,49,0.00,,,0.00,Wunderground v.1.15,2013-12-28 20:45:00,
2013-12-28 14:48:00,55.4,36.1,30.05,SE,138,0.0,6.0,48,0.00,,---,0.00,VWS V14.01,2013-12-28 20:48:00,
2013-12-28 14:50:00,55.3,36.5,30.05,ESE,115,3.0,3.0,49,0.00,,,0.00,Wunderground v.1.15,2013-12-28 20:50:00,
2013-12-28 14:53:00,55.1,36.3,30.05,ENE,66,3.0,5.0,49,0.00,,---,0.00,VWS V14.01,2013-12-28 20:53:00,
2013-12-28 14:58:00,55.1,36.3,30.04,ESE,115,1.0,5.0,49,0.00,,---,0.00,VWS V14.01,2013-12-28 20:58:00,
2013-12-28 15:00:00,55.1,36.3,30.04,ESE,115,2.0,8.0,49,0.00,,,0.00,Wunderground v.1.15,2013-12-28 21:00:00,
2013-12-28 15:03:00,55.1,36.3,30.05,SE,131,2.0,3.0,49,0.00,,---,0.00,VWS V14.01,2013-12-28 21:03:00,
2013-12-28 15:05:00,55.1,36.3,30.05,SE,132,2.0,8.0,49,0.00,,,0.00,Wunderground v.1.15,2013-12-28 21:05:00,
2013-12-28 15:09:00,55.1,36.8,30.05,SE,139,2.0,5.0,50,0.00,,---,0.00,VWS V14.01,2013-12-28 21:09:00,
2013-12-28 15:10:00,55.1,36.8,30.05,SE,139,2.0,2.0,50,0.00,,,0.00,Wunderground v.1.15,2013-12-28 21:10:00,
2013-12-28 15:14:00,55.0,37.2,30.05,SE,132,2.0,5.0,51,0.00,,---,0.00,VWS V14.01,2013-12-28 21:14:00,
2013-12-28 15:15:00,55.0,37.2,30.05,SSW,203,2.0,8.0,51,0.00,,,0.00,Wunderground v.1.15,2013-12-28 21:15:00,
2013-12-28 15:19:00,54.8,36.5,30.05,East,83,3.0,7.0,50,0.00,,---,0.00,VWS V14.01,2013-12-28 21:19:00,
2013-12-28 15:20:00,54.8,36.5,30.04,East,84,3.0,8.0,50,0.00,,,0.00,Wunderground v.1.15,2013-12-28 21:20:00,
2013-12-28 15:24:00,54.8,36.5,30.05,NE,50,2.0,3.0,50,0.00,,---,0.00,VWS V14.01,2013-12-28 21:24:00,
2013-12-28 15:25:00,54.8,36.5,30.05,NE,50,2.0,8.0,50,0.00,,,0.00,Wunderground v.1.15,2013-12-28 21:25:00,
2013-12-28 15:29:00,55.1,36.3,30.04,SSE,159,6.0,6.0,49,0.00,,---,0.00,VWS V14.01,2013-12-28 21:29:00,
2013-12-28 15:30:00,55.1,36.3,30.04,SE,136,2.0,8.0,49,0.00,,,0.00,Wunderground v.1.15,2013-12-28 21:30:00,
2013-12-28 15:34:00,55.0,35.2,30.04,SE,136,2.0,5.0,47,0.00,,---,0.00,VWS V14.01,2013-12-28 21:34:00,
2013-12-28 15:35:00,55.0,35.1,30.04,SE,136,2.0,8.0,47,0.00,,,0.00,Wunderground v.1.15,2013-12-28 21:35:00,
2013-12-28 15:39:00,54.7,36.4,30.03,East,84,1.0,6.0,50,0.00,,---,0.00,VWS V14.01,2013-12-28 21:39:00,
2013-12-28 15:40:00,54.7,36.4,30.03,East,84,2.0,2.0,50,0.00,,,0.00,Wunderground v.1.15,2013-12-28 21:40:00,
2013-12-28 15:45:00,54.5,37.2,30.03,East,84,1.0,8.0,52,0.00,,,0.00,Wunderground v.1.15,2013-12-28 21:45:00,
2013-12-28 15:50:00,54.4,37.1,30.03,East,84,1.0,1.0,52,0.00,,,0.00,Wunderground v.1.15,2013-12-28 21:50:00,
2013-12-28 15:55:00,54.4,36.6,30.03,SE,139,2.0,3.0,51,0.00,,,0.00,Wunderground v.1.15,2013-12-28 21:55:00,
2013-12-28 16:00:00,54.2,36.9,30.03,SE,139,1.0,8.0,52,0.00,,,0.00,Wunderground v.1.15,2013-12-28 22:00:00,
2013-12-28 16:01:00,54.2,37.0,30.03,SE,139,0.0,1.0,52,0.00,,---,0.00,VWS V14.01,2013-12-28 22:01:00,
2013-12-28 16:05:00,54.1,36.9,30.03,SE,139,1.0,8.0,52,0.00,,,0.00,Wunderground v.1.15,2013-12-28 22:05:00,
2013-12-28 16:06:00,54.1,36.9,30.03,SE,139,0.0,2.0,52,0.00,,---,0.00,VWS V14.01,2013-12-28 22:06:00,
2013-12-28 16:10:00,54.1,36.9,30.03,SE,139,1.0,1.0,52,0.00,,,0.00,Wunderground v.1.15,2013-12-28 22:10:00,
2013-12-28 16:11:00,54.1,36.4,30.03,SE,139,1.0,1.0,51,0.00,,---,0.00,VWS V14.01,2013-12-28 22:11:00,
2013-12-28 16:15:00,54.4,36.6,30.03,ESE,109,1.0,8.0,51,0.00,,,0.00,Wunderground v.1.15,2013-12-28 22:15:00,
2013-12-28 16:16:00,54.4,36.2,30.02,ESE,109,1.0,5.0,50,0.00,,---,0.00,VWS V14.01,2013-12-28 22:16:00,
2013-12-28 16:20:00,54.8,36.0,30.02,ESE,109,1.0,8.0,49,0.00,,,0.00,Wunderground v.1.15,2013-12-28 22:20:00,
2013-12-28 16:22:00,55.0,36.2,30.02,ESE,111,1.0,3.0,49,0.00,,---,0.00,VWS V14.01,2013-12-28 22:22:00,
2013-12-28 16:25:00,55.1,36.3,30.02,ESE,111,1.0,8.0,49,0.00,,,0.00,Wunderground v.1.15,2013-12-28 22:25:00,
2013-12-28 16:27:00,55.0,35.7,30.02,ESE,111,2.0,3.0,48,0.00,,---,0.00,VWS V14.01,2013-12-28 22:27:00,
2013-12-28 16:30:00,55.1,35.7,30.02,ESE,111,2.0,2.0,48,0.00,,,0.00,Wunderground v.1.15,2013-12-28 22:30:00,
2013-12-28 16:32:00,55.0,35.7,30.02,ESE,111,1.0,2.0,48,0.00,,---,0.00,VWS V14.01,2013-12-28 22:32:00,
2013-12-28 16:35:00,54.8,36.0,30.02,ESE,111,2.0,8.0,49,0.00,,,0.00,Wunderground v.1.15,2013-12-28 22:35:00,
2013-12-28 16:37:00,54.7,35.9,30.02,SE,131,3.0,5.0,49,0.00,,---,0.00,VWS V14.01,2013-12-28 22:37:00,
2013-12-28 16:40:00,54.4,36.1,30.02,SE,131,2.0,2.0,50,0.00,,,0.00,Wunderground v.1.15,2013-12-28 22:40:00,
2013-12-28 16:44:00,53.9,36.2,30.02,SE,131,1.0,3.0,51,0.00,,---,0.00,VWS V14.01,2013-12-28 22:44:00,
2013-12-28 16:45:00,53.8,36.1,30.02,SE,131,2.0,8.0,51,0.00,,,0.00,Wunderground v.1.15,2013-12-28 22:45:00,
2013-12-28 16:49:00,53.3,36.6,30.02,SE,131,1.0,3.0,53,0.00,,---,0.00,VWS V14.01,2013-12-28 22:49:00,
2013-12-28 16:50:00,53.2,36.5,30.02,SE,131,1.0,8.0,53,0.00,,,0.00,Wunderground v.1.15,2013-12-28 22:50:00,
2013-12-28 16:54:00,52.5,36.8,30.02,SE,131,1.0,1.0,55,0.00,,---,0.00,VWS V14.01,2013-12-28 22:54:00,
2013-12-28 16:55:00,52.3,37.5,30.02,SE,131,1.0,8.0,57,0.00,,,0.00,Wunderground v.1.15,2013-12-28 22:55:00,
2013-12-28 16:59:00,51.6,38.6,30.02,SE,131,0.0,1.0,61,0.00,,---,0.00,VWS V14.01,2013-12-28 22:59:00,
2013-12-28 17:00:00,51.6,38.6,30.02,SE,131,1.0,1.0,61,0.00,,,0.00,Wunderground v.1.15,2013-12-28 23:00:00,
2013-12-28 17:04:00,50.4,38.7,30.02,SE,131,0.0,0.0,64,0.00,,---,0.00,VWS V14.01,2013-12-28 23:04:00,
2013-12-28 17:05:00,50.4,38.7,30.02,SE,131,1.0,8.0,64,0.00,,,0.00,Wunderground v.1.15,2013-12-28 23:05:00,
2013-12-28 17:10:00,49.4,38.9,30.01,SE,131,0.0,0.0,67,0.00,,---,0.00,VWS V14.01,2013-12-28 23:10:00,
2013-12-28 17:15:00,48.5,38.0,30.01,SE,131,0.0,8.0,67,0.00,,,0.00,Wunderground v.1.15,2013-12-28 23:15:00,
2013-12-28 17:20:00,47.4,38.1,30.01,SE,131,0.0,8.0,70,0.00,,,0.00,Wunderground v.1.15,2013-12-28 23:20:00,
2013-12-28 17:25:00,46.4,37.9,30.01,SE,131,0.0,8.0,72,0.00,,,0.00,Wunderground v.1.15,2013-12-28 23:25:00,
2013-12-28 17:30:00,45.4,37.6,30.01,SE,131,0.0,8.0,74,0.00,,,0.00,Wunderground v.1.15,2013-12-28 23:30:00,
2013-12-28 17:31:00,45.2,37.4,30.01,SE,131,0.0,0.0,74,0.00,,---,0.00,VWS V14.01,2013-12-28 23:31:00,
2013-12-28 17:36:00,44.3,36.9,30.01,SE,131,0.0,0.0,75,0.00,,---,0.00,VWS V14.01,2013-12-28 23:36:00,
2013-12-28 17:40:00,43.6,37.2,30.01,SE,131,0.0,8.0,78,0.00,,,0.00,Wunderground v.1.15,2013-12-28 23:40:00,
2013-12-28 17:41:00,43.3,36.9,30.01,SE,131,0.0,0.0,78,0.00,,---,0.00,VWS V14.01,2013-12-28 23:41:00,
2013-12-28 17:45:00,42.8,36.4,30.01,SE,131,0.0,8.0,78,0.00,,,0.00,Wunderground v.1.15,2013-12-28 23:45:00,
2013-12-28 17:47:00,42.5,36.1,30.01,SE,131,0.0,0.0,78,0.00,,---,0.00,VWS V14.01,2013-12-28 23:47:00,
2013-12-28 17:52:00,41.9,35.9,30.01,SE,131,0.0,0.0,79,0.00,,---,0.00,VWS V14.01,2013-12-28 23:52:00,
2013-12-28 17:55:00,41.6,35.9,30.01,SE,131,0.0,8.0,80,0.00,,,0.00,Wunderground v.1.15,2013-12-28 23:55:00,
2013-12-28 17:57:00,41.2,35.5,30.01,SE,131,0.0,0.0,80,0.00,,---,0.00,VWS V14.01,2013-12-28 23:57:00,
2013-12-28 18:00:00,40.9,35.2,30.01,SE,131,0.0,8.0,80,0.00,,,0.00,Wunderground v.1.15,2013-12-29 00:00:00,
2013-12-28 18:03:00,40.6,34.9,30.01,SE,131,0.0,0.0,80,0.00,,---,0.00,VWS V14.01,2013-12-29 00:03:00,
2013-12-28 18:05:00,40.5,34.8,30.01,SE,131,0.0,8.0,80,0.00,,,0.00,Wunderground v.1.15,2013-12-29 00:05:00,
2013-12-28 18:08:00,40.2,34.5,30.01,SE,131,0.0,0.0,80,0.00,,---,0.00,VWS V14.01,2013-12-29 00:08:00,
2013-12-28 18:10:00,40.1,34.4,30.01,SE,131,0.0,0.0,80,0.00,,,0.00,Wunderground v.1.15,2013-12-29 00:10:00,
2013-12-28 18:13:00,39.8,34.1,30.01,SE,131,0.0,0.0,80,0.00,,---,0.00,VWS V14.01,2013-12-29 00:13:00,
2013-12-28 18:15:00,39.5,34.2,30.01,SE,131,0.0,0.0,81,0.00,,,0.00,Wunderground v.1.15,2013-12-29 00:15:00,
2013-12-28 18:18:00,39.1,34.4,30.01,SE,131,0.0,0.0,83,0.00,,---,0.00,VWS V14.01,2013-12-29 00:18:00,
2013-12-28 18:20:00,38.9,34.2,30.01,SE,131,0.0,0.0,83,0.00,,,0.00,Wunderground v.1.15,2013-12-29 00:20:00,
2013-12-28 18:23:00,38.6,33.9,30.01,SE,131,0.0,0.0,83,0.00,,---,0.00,VWS V14.01,2013-12-29 00:23:00,
2013-12-28 18:25:00,38.5,33.8,30.01,SE,131,0.0,0.0,83,0.00,,,0.00,Wunderground v.1.15,2013-12-29 00:25:00,
2013-12-28 18:28:00,38.3,33.6,30.01,SE,131,0.0,0.0,83,0.00,,---,0.00,VWS V14.01,2013-12-29 00:28:00,
2013-12-28 18:30:00,38.2,33.5,30.01,SE,131,0.0,0.0,83,0.00,,,0.00,Wunderground v.1.15,2013-12-29 00:30:00,
2013-12-28 18:34:00,37.9,33.5,30.01,SE,131,0.0,0.0,84,0.00,,---,0.00,VWS V14.01,2013-12-29 00:34:00,
2013-12-28 18:35:00,37.9,33.5,30.02,SE,131,0.0,0.0,84,0.00,,,0.00,Wunderground v.1.15,2013-12-29 00:35:00,
2013-12-28 18:39:00,37.5,33.1,30.02,SE,131,0.0,0.0,84,0.00,,---,0.00,VWS V14.01,2013-12-29 00:39:00,
2013-12-28 18:44:00,37.2,32.8,30.02,SE,131,0.0,0.0,84,0.00,,---,0.00,VWS V14.01,2013-12-29 00:44:00,
2013-12-28 18:45:00,37.2,32.8,30.02,SE,131,0.0,0.0,84,0.00,,,0.00,Wunderground v.1.15,2013-12-29 00:45:00,
2013-12-28 18:50:00,36.9,32.8,30.02,SE,131,0.0,0.0,85,0.00,,,0.00,Wunderground v.1.15,2013-12-29 00:50:00,
2013-12-28 18:55:00,36.8,32.7,30.02,SE,131,0.0,0.0,85,0.00,,---,0.00,VWS V14.01,2013-12-29 00:55:00,
2013-12-28 19:00:00,36.2,32.1,30.02,SE,131,0.0,0.0,85,0.00,,---,0.00,VWS V14.01,2013-12-29 01:00:00,
2013-12-28 19:05:00,36.0,31.9,30.01,SE,131,0.0,0.0,85,0.00,,---,0.00,VWS V14.01,2013-12-29 01:05:00,
2013-12-28 19:10:00,35.8,32.0,30.01,SE,131,0.0,0.0,86,0.00,,---,0.00,VWS V14.01,2013-12-29 01:10:00,
2013-12-28 19:15:00,35.5,31.7,30.01,SE,131,0.0,0.0,86,0.00,,---,0.00,VWS V14.01,2013-12-29 01:15:00,
2013-12-28 19:20:00,35.3,31.8,30.01,SE,131,0.0,0.0,87,0.00,,,0.00,Wunderground v.1.15,2013-12-29 01:20:00,
2013-12-28 19:25:00,35.2,32.0,30.01,SE,131,0.0,0.0,88,0.00,,,0.00,Wunderground v.1.15,2013-12-29 01:25:00,
2013-12-28 19:30:00,35.0,31.8,30.02,SE,131,0.0,0.0,88,0.00,,,0.00,Wunderground v.1.15,2013-12-29 01:30:00,
2013-12-28 19:31:00,35.0,31.8,30.01,SE,131,0.0,0.0,88,0.00,,---,0.00,VWS V14.01,2013-12-29 01:31:00,
2013-12-28 19:35:00,34.7,31.5,30.02,SE,131,0.0,0.0,88,0.00,,,0.00,Wunderground v.1.15,2013-12-29 01:35:00,
2013-12-28 19:36:00,34.7,31.5,30.02,SE,131,0.0,0.0,88,0.00,,---,0.00,VWS V14.01,2013-12-29 01:36:00,
2013-12-28 19:40:00,34.6,31.4,30.01,SE,131,0.0,0.0,88,0.00,,,0.00,Wunderground v.1.15,2013-12-29 01:40:00,
2013-12-28 19:41:00,34.6,31.4,30.01,SE,131,0.0,0.0,88,0.00,,---,0.00,VWS V14.01,2013-12-29 01:41:00,
2013-12-28 19:45:00,34.6,31.4,30.01,SE,131,0.0,0.0,88,0.00,,,0.00,Wunderground v.1.15,2013-12-29 01:45:00,
2013-12-28 19:47:00,34.4,31.2,30.01,SE,131,0.0,0.0,88,0.00,,---,0.00,VWS V14.01,2013-12-29 01:47:00,
2013-12-28 19:50:00,34.3,31.4,30.01,SE,131,0.0,0.0,89,0.00,,,0.00,Wunderground v.1.15,2013-12-29 01:50:00,
2013-12-28 19:52:00,34.3,31.4,30.02,SE,131,0.0,0.0,89,0.00,,---,0.00,VWS V14.01,2013-12-29 01:52:00,
2013-12-28 19:55:00,34.1,31.2,30.02,SE,131,0.0,0.0,89,0.00,,,0.00,Wunderground v.1.15,2013-12-29 01:55:00,
2013-12-28 19:57:00,34.1,31.2,30.02,SE,131,0.0,0.0,89,0.00,,---,0.00,VWS V14.01,2013-12-29 01:57:00,
2013-12-28 20:00:00,34.0,31.1,30.02,SE,131,0.0,0.0,89,0.00,,,0.00,Wunderground v.1.15,2013-12-29 02:00:00,
2013-12-28 20:02:00,34.0,31.1,30.01,SE,131,0.0,0.0,89,0.00,,---,0.00,VWS V14.01,2013-12-29 02:02:00,
2013-12-28 20:07:00,33.7,30.8,30.01,SE,131,0.0,0.0,89,0.00,,---,0.00,VWS V14.01,2013-12-29 02:07:00,
2013-12-28 20:10:00,33.5,30.6,30.01,SE,131,0.0,0.0,89,0.00,,,0.00,Wunderground v.1.15,2013-12-29 02:10:00,
2013-12-28 20:12:00,33.5,30.6,30.01,SE,131,0.0,0.0,89,0.00,,---,0.00,VWS V14.01,2013-12-29 02:12:00,
2013-12-28 20:15:00,33.4,30.5,30.01,SE,131,0.0,0.0,89,0.00,,,0.00,Wunderground v.1.15,2013-12-29 02:15:00,
2013-12-28 20:18:00,33.4,30.5,30.01,SE,131,0.0,0.0,89,0.00,,---,0.00,VWS V14.01,2013-12-29 02:18:00,
2013-12-28 20:20:00,33.2,30.3,30.01,SE,131,0.0,0.0,89,0.00,,,0.00,Wunderground v.1.15,2013-12-29 02:20:00,
2013-12-28 20:23:00,33.2,30.3,30.01,SE,131,0.0,0.0,89,0.00,,---,0.00,VWS V14.01,2013-12-29 02:23:00,
2013-12-28 20:25:00,33.2,30.3,30.01,SE,131,0.0,0.0,89,0.00,,,0.00,Wunderground v.1.15,2013-12-29 02:25:00,
2013-12-28 20:28:00,33.2,30.6,30.01,SE,131,0.0,0.0,90,0.00,,---,0.00,VWS V14.01,2013-12-29 02:28:00,
2013-12-28 20:30:00,33.2,30.6,30.01,SE,131,0.0,0.0,90,0.00,,,0.00,Wunderground v.1.15,2013-12-29 02:30:00,
2013-12-28 20:33:00,33.1,30.5,30.01,SE,131,0.0,0.0,90,0.00,,---,0.00,VWS V14.01,2013-12-29 02:33:00,
2013-12-28 20:38:00,33.1,30.5,30.00,SE,131,0.0,0.0,90,0.00,,---,0.00,VWS V14.01,2013-12-29 02:38:00,
2013-12-28 20:40:00,32.9,30.3,30.00,SE,131,0.0,0.0,90,0.00,,,0.00,Wunderground v.1.15,2013-12-29 02:40:00,
2013-12-28 20:43:00,32.8,30.2,30.01,SE,131,0.0,0.0,90,0.00,,---,0.00,VWS V14.01,2013-12-29 02:43:00,
2013-12-28 20:45:00,32.8,30.2,30.00,SE,131,0.0,0.0,90,0.00,,,0.00,Wunderground v.1.15,2013-12-29 02:45:00,
2013-12-28 20:48:00,32.8,30.2,30.00,SE,131,0.0,0.0,90,0.00,,---,0.00,VWS V14.01,2013-12-29 02:48:00,
2013-12-28 20:50:00,32.7,30.4,30.00,SE,131,0.0,0.0,91,0.00,,,0.00,Wunderground v.1.15,2013-12-29 02:50:00,
2013-12-28 20:54:00,32.7,30.4,30.00,SE,131,0.0,0.0,91,0.00,,---,0.00,VWS V14.01,2013-12-29 02:54:00,
2013-12-28 20:55:00,32.7,30.4,30.00,SE,131,0.0,0.0,91,0.00,,,0.00,Wunderground v.1.15,2013-12-29 02:55:00,
2013-12-28 20:59:00,32.5,30.2,30.00,SE,131,0.0,0.0,91,0.00,,---,0.00,VWS V14.01,2013-12-29 02:59:00,
2013-12-28 21:00:00,32.5,30.2,30.00,SE,131,0.0,0.0,91,0.00,,,0.00,Wunderground v.1.15,2013-12-29 03:00:00,
2013-12-28 21:04:00,32.5,30.2,30.00,SE,131,0.0,0.0,91,0.00,,---,0.00,VWS V14.01,2013-12-29 03:04:00,
2013-12-28 21:05:00,32.5,30.2,30.00,SE,131,0.0,0.0,91,0.00,,,0.00,Wunderground v.1.15,2013-12-29 03:05:00,
2013-12-28 21:09:00,32.5,30.2,30.00,SE,131,0.0,0.0,91,0.00,,---,0.00,VWS V14.01,2013-12-29 03:09:00,
2013-12-28 21:10:00,32.5,30.2,30.00,SE,131,0.0,0.0,91,0.00,,,0.00,Wunderground v.1.15,2013-12-29 03:10:00,
2013-12-28 21:15:00,32.5,30.2,30.00,SE,131,0.0,0.0,91,0.00,,---,0.00,VWS V14.01,2013-12-29 03:15:00,
2013-12-28 21:20:00,32.5,30.4,30.00,SE,131,0.0,0.0,92,0.00,,---,0.00,VWS V14.01,2013-12-29 03:20:00,
2013-12-28 21:25:00,32.8,30.7,30.00,SE,131,0.0,0.0,92,0.00,,,0.00,Wunderground v.1.15,2013-12-29 03:25:00,
2013-12-28 21:30:00,32.9,30.8,30.00,SE,131,0.0,0.0,92,0.00,,,0.00,Wunderground v.1.15,2013-12-29 03:30:00,
2013-12-28 21:35:00,33.2,31.4,30.00,SE,131,0.0,0.0,93,0.00,,,0.00,Wunderground v.1.15,2013-12-29 03:35:00,
2013-12-28 21:40:00,33.5,31.7,30.00,SE,131,0.0,0.0,93,0.00,,,0.00,Wunderground v.1.15,2013-12-29 03:40:00,
2013-12-28 21:45:00,33.8,32.0,30.00,SE,131,0.0,0.0,93,0.00,,---,0.00,VWS V14.01,2013-12-29 03:45:00,
2013-12-28 21:50:00,34.1,32.3,30.00,SE,131,0.0,0.0,93,0.00,,,0.00,Wunderground v.1.15,2013-12-29 03:50:00,
2013-12-28 21:51:00,34.1,32.3,30.00,SE,131,0.0,0.0,93,0.00,,---,0.00,VWS V14.01,2013-12-29 03:51:00,
2013-12-28 21:55:00,34.3,32.5,30.00,SE,131,0.0,0.0,93,0.00,,,0.00,Wunderground v.1.15,2013-12-29 03:55:00,
2013-12-28 21:56:00,34.4,32.6,30.00,SE,131,0.0,0.0,93,0.00,,---,0.00,VWS V14.01,2013-12-29 03:56:00,
2013-12-28 22:01:00,34.6,32.8,29.99,SE,131,0.0,0.0,93,0.00,,---,0.00,VWS V14.01,2013-12-29 04:01:00,
2013-12-28 22:05:00,34.7,32.9,29.99,SE,131,0.0,0.0,93,0.00,,,0.00,Wunderground v.1.15,2013-12-29 04:05:00,
2013-12-28 22:06:00,34.7,32.9,29.99,SE,131,0.0,0.0,93,0.00,,---,0.00,VWS V14.01,2013-12-29 04:06:00,
2013-12-28 22:10:00,34.7,32.9,30.00,SE,131,0.0,0.0,93,0.00,,,0.00,Wunderground v.1.15,2013-12-29 04:10:00,
2013-12-28 22:11:00,34.9,33.1,30.00,SE,131,0.0,0.0,93,0.00,,---,0.00,VWS V14.01,2013-12-29 04:11:00,
2013-12-28 22:15:00,34.9,33.1,30.00,SE,131,0.0,0.0,93,0.00,,,0.00,Wunderground v.1.15,2013-12-29 04:15:00,
2013-12-28 22:16:00,35.2,33.7,30.00,SE,131,0.0,0.0,94,0.00,,---,0.00,VWS V14.01,2013-12-29 04:16:00,
2013-12-28 22:20:00,35.2,33.6,30.00,SE,131,0.0,0.0,94,0.00,,,0.00,Wunderground v.1.15,2013-12-29 04:20:00,
2013-12-28 22:22:00,35.3,33.8,30.00,SE,131,0.0,0.0,94,0.00,,---,0.00,VWS V14.01,2013-12-29 04:22:00,
2013-12-28 22:25:00,35.5,33.7,30.00,SE,131,0.0,0.0,93,0.00,,,0.00,Wunderground v.1.15,2013-12-29 04:25:00,
2013-12-28 22:27:00,35.6,34.0,30.00,SE,131,0.0,0.0,94,0.00,,---,0.00,VWS V14.01,2013-12-29 04:27:00,
2013-12-28 22:30:00,35.8,34.2,30.00,SE,131,0.0,0.0,94,0.00,,,0.00,Wunderground v.1.15,2013-12-29 04:30:00,
2013-12-28 22:32:00,35.8,34.2,30.00,SE,131,0.0,0.0,94,0.00,,---,0.00,VWS V14.01,2013-12-29 04:32:00,
2013-12-28 22:35:00,36.2,34.6,30.00,SE,131,0.0,0.0,94,0.00,,,0.00,Wunderground v.1.15,2013-12-29 04:35:00,
2013-12-28 22:38:00,36.3,34.7,30.00,SE,131,0.0,0.0,94,0.00,,---,0.00,VWS V14.01,2013-12-29 04:38:00,
2013-12-28 22:43:00,36.8,35.2,29.99,SE,131,0.0,0.0,94,0.00,,---,0.00,VWS V14.01,2013-12-29 04:43:00,
2013-12-28 22:45:00,36.8,35.2,29.99,SE,131,0.0,0.0,94,0.00,,,0.00,Wunderground v.1.15,2013-12-29 04:45:00,
2013-12-28 22:48:00,36.9,35.3,29.99,SE,131,0.0,0.0,94,0.00,,---,0.00,VWS V14.01,2013-12-29 04:48:00,
2013-12-28 22:50:00,37.0,35.4,29.99,SE,131,0.0,0.0,94,0.00,,,0.00,Wunderground v.1.15,2013-12-29 04:50:00,
2013-12-28 22:53:00,37.2,35.6,29.99,SE,131,0.0,0.0,94,0.00,,---,0.00,VWS V14.01,2013-12-29 04:53:00,
2013-12-28 22:58:00,37.5,35.9,29.99,SE,131,0.0,0.0,94,0.00,,---,0.00,VWS V14.01,2013-12-29 04:58:00,
2013-12-28 23:00:00,37.6,36.0,29.99,SE,131,0.0,0.0,94,0.00,,,0.00,Wunderground v.1.15,2013-12-29 05:00:00,
2013-12-28 23:01:00,37.6,36.0,29.99,SE,131,0.0,0.0,94,0.00,,---,0.00,VWS V14.01,2013-12-29 05:01:00,
2013-12-28 23:05:00,37.9,36.3,29.99,SE,131,0.0,0.0,94,0.00,,,0.00,Wunderground v.1.15,2013-12-29 05:05:00,
2013-12-28 23:06:00,38.0,36.4,29.99,SE,131,0.0,0.0,94,0.00,,---,0.00,VWS V14.01,2013-12-29 05:06:00,
2013-12-28 23:10:00,38.3,36.7,29.99,SE,131,0.0,0.0,94,0.00,,,0.00,Wunderground v.1.15,2013-12-29 05:10:00,
2013-12-28 23:12:00,38.3,36.7,29.99,SE,131,0.0,0.0,94,0.00,,---,0.00,VWS V14.01,2013-12-29 05:12:00,
2013-12-28 23:15:00,38.5,36.9,29.99,SE,131,0.0,0.0,94,0.00,,,0.00,Wunderground v.1.15,2013-12-29 05:15:00,
2013-12-28 23:17:00,38.6,37.0,29.99,SE,131,0.0,0.0,94,0.00,,---,0.00,VWS V14.01,2013-12-29 05:17:00,
2013-12-28 23:22:00,38.6,37.0,29.99,SE,131,0.0,0.0,94,0.00,,---,0.00,VWS V14.01,2013-12-29 05:22:00,
2013-12-28 23:25:00,38.8,37.2,29.99,SE,131,0.0,0.0,94,0.00,,,0.00,Wunderground v.1.15,2013-12-29 05:25:00,
2013-12-28 23:27:00,38.9,37.3,29.99,SE,131,0.0,0.0,94,0.00,,---,0.00,VWS V14.01,2013-12-29 05:27:00,
2013-12-28 23:30:00,39.1,37.5,29.99,SE,131,0.0,0.0,94,0.00,,,0.00,Wunderground v.1.15,2013-12-29 05:30:00,
2013-12-28 23:32:00,39.1,37.5,29.99,SE,131,0.0,0.0,94,0.00,,---,0.00,VWS V14.01,2013-12-29 05:32:00,
2013-12-28 23:35:00,39.2,37.6,29.99,SE,131,0.0,0.0,94,0.00,,,0.00,Wunderground v.1.15,2013-12-29 05:35:00,
2013-12-28 23:37:00,39.2,37.6,29.99,SE,131,0.0,0.0,94,0.00,,---,0.00,VWS V14.01,2013-12-29 05:37:00,
2013-12-28 23:40:00,39.2,37.6,29.98,SE,131,0.0,0.0,94,0.00,,,0.00,Wunderground v.1.15,2013-12-29 05:40:00,
2013-12-28 23:42:00,39.3,37.7,29.98,SE,131,0.0,0.0,94,0.00,,---,0.00,VWS V14.01,2013-12-29 05:42:00,
2013-12-28 23:45:00,39.3,37.7,29.98,SE,131,0.0,0.0,94,0.00,,,0.00,Wunderground v.1.15,2013-12-29 05:45:00,
2013-12-28 23:48:00,39.3,37.7,29.98,SE,131,0.0,0.0,94,0.00,,---,0.00,VWS V14.01,2013-12-29 05:48:00,
2013-12-28 23:50:00,39.3,37.7,29.98,SE,131,0.0,0.0,94,0.00,,,0.00,Wunderground v.1.15,2013-12-29 05:50:00,
2013-12-28 23:53:00,39.3,37.7,29.98,SE,131,0.0,0.0,94,0.00,,---,0.00,VWS V14.01,2013-12-29 05:53:00,
2013-12-28 23:58:00,39.3,37.5,29.98,SE,131,0.0,0.0,93,0.00,,---,0.00,VWS V14.01,2013-12-29 05:58:00,